createdAt,value
2022-10-08T00:02:32.940Z,10.22
2022-10-08T00:05:06.754Z,10.20
2022-10-08T00:08:00.211Z,10.18
2022-10-08T00:11:24.667Z,10.18
2022-10-08T00:13:53.614Z,10.18
2022-10-08T00:16:35.821Z,10.18
2022-10-08T00:19:28.003Z,10.15
2022-10-08T00:22:01.464Z,10.15
2022-10-08T00:24:33.225Z,10.17
2022-10-08T00:27:26.144Z,10.16
2022-10-08T00:30:08.567Z,10.12
2022-10-08T00:32:41.069Z,10.09
2022-10-08T00:35:23.884Z,10.06
2022-10-08T00:38:11.490Z,10.04
2022-10-08T00:40:45.846Z,10.00
2022-10-08T00:44:03.118Z,9.98
2022-10-08T00:46:59.196Z,9.93
2022-10-08T00:49:55.721Z,9.92
2022-10-08T00:52:33.308Z,9.92
2022-10-08T00:55:19.875Z,9.89
2022-10-08T00:58:00.894Z,9.89
2022-10-08T01:00:42.685Z,9.90
2022-10-08T01:03:59.602Z,9.90
2022-10-08T01:06:44.334Z,9.91
2022-10-08T01:09:40.718Z,9.93
2022-10-08T01:12:50.110Z,9.97
2022-10-08T01:15:47.376Z,9.98
2022-10-08T01:18:56.058Z,9.97
2022-10-08T01:21:38.982Z,9.97
2022-10-08T01:24:46.469Z,9.97
2022-10-08T01:27:53.355Z,9.94
2022-10-08T01:30:23.741Z,9.92
2022-10-08T01:33:21.958Z,9.90
2022-10-08T01:36:12.429Z,9.86
2022-10-08T01:38:56.701Z,9.84
2022-10-08T01:44:34.468Z,9.84
2022-10-08T01:47:15.788Z,9.80
2022-10-08T01:49:52.932Z,9.78
2022-10-08T01:52:36.730Z,9.77
2022-10-08T01:55:17.854Z,9.76
2022-10-08T01:57:49.054Z,9.76
2022-10-08T02:00:34.503Z,9.76
2022-10-08T02:03:06.819Z,9.76
2022-10-08T02:05:50.082Z,9.77
2022-10-08T02:08:27.714Z,9.75
2022-10-08T02:10:59.739Z,9.73
2022-10-08T02:13:52.318Z,9.73
2022-10-08T02:16:47.694Z,9.76
2022-10-08T02:20:06.442Z,9.79
2022-10-08T02:22:58.495Z,9.84
2022-10-08T02:25:51.383Z,9.89
2022-10-08T02:28:43.736Z,9.90
2022-10-08T02:32:01.815Z,9.89
2022-10-08T02:34:50.549Z,9.88
2022-10-08T02:37:58.758Z,9.89
2022-10-08T02:40:44.088Z,9.91
2022-10-08T02:43:29.170Z,9.91
2022-10-08T02:46:24.751Z,9.88
2022-10-08T02:49:12.947Z,9.86
2022-10-08T02:52:06.437Z,9.83
2022-10-08T02:54:45.241Z,9.80
2022-10-08T02:57:58.765Z,9.77
2022-10-08T03:01:05.726Z,9.75
2022-10-08T03:03:40.224Z,9.70
2022-10-08T03:06:44.922Z,9.66
2022-10-08T03:09:27.876Z,9.66
2022-10-08T03:12:13.350Z,9.68
2022-10-08T03:14:52.184Z,9.70
2022-10-08T03:17:40.677Z,9.70
2022-10-08T03:20:13.563Z,9.69
2022-10-08T03:22:46.646Z,9.69
2022-10-08T03:25:39.174Z,9.69
2022-10-08T03:28:09.655Z,9.70
2022-10-08T03:33:29.087Z,9.74
2022-10-08T03:36:17.728Z,9.75
2022-10-08T03:39:06.109Z,9.78
2022-10-08T03:41:47.611Z,9.82
2022-10-08T03:44:47.118Z,9.87
2022-10-08T03:47:19.560Z,9.93
2022-10-08T03:50:01.990Z,10.00
2022-10-08T03:52:50.268Z,10.08
2022-10-08T03:55:27.330Z,10.17
2022-10-08T03:57:58.214Z,10.26
2022-10-08T04:01:02.481Z,10.33
2022-10-08T04:03:32.895Z,10.40
2022-10-08T04:06:11.117Z,10.43
2022-10-08T04:09:01.706Z,10.47
2022-10-08T04:14:25.990Z,10.54
2022-10-08T04:17:14.943Z,10.56
2022-10-08T04:20:04.582Z,10.58
2022-10-08T04:22:42.477Z,10.56
2022-10-08T04:25:27.363Z,10.57
2022-10-08T04:28:06.920Z,10.59
2022-10-08T04:30:41.592Z,10.63
2022-10-08T04:33:22.010Z,10.67
2022-10-08T04:36:07.183Z,10.70
2022-10-08T04:38:56.550Z,10.71
2022-10-08T04:41:42.233Z,10.74
2022-10-08T04:44:18.331Z,10.77
2022-10-08T04:46:56.557Z,10.80
2022-10-08T04:49:25.634Z,10.83
2022-10-08T04:51:59.224Z,10.86
2022-10-08T04:57:39.290Z,10.93
2022-10-08T05:00:21.632Z,10.96
2022-10-08T05:03:16.010Z,10.99
2022-10-08T05:06:14.417Z,11.00
2022-10-08T05:09:05.332Z,11.00
2022-10-08T05:11:42.974Z,11.00
2022-10-08T05:14:18.343Z,11.01
2022-10-08T05:16:51.654Z,11.04
2022-10-08T05:19:44.268Z,11.08
2022-10-08T05:22:47.366Z,11.11
2022-10-08T05:25:43.986Z,11.16
2022-10-08T05:28:27.861Z,11.20
2022-10-08T05:31:09.258Z,11.22
2022-10-08T05:33:46.912Z,11.22
2022-10-08T05:36:28.662Z,11.23
2022-10-08T05:39:00.120Z,11.21
2022-10-08T05:41:54.640Z,11.17
2022-10-08T05:44:37.436Z,11.16
2022-10-08T05:47:05.148Z,11.15
2022-10-08T05:49:43.915Z,11.14
2022-10-08T05:52:11.622Z,11.13
2022-10-08T05:55:13.267Z,11.13
2022-10-08T05:57:49.186Z,11.12
2022-10-08T06:00:18.637Z,11.13
2022-10-08T06:03:09.900Z,11.17
2022-10-08T06:05:58.476Z,11.23
2022-10-08T06:08:38.387Z,11.29
2022-10-08T06:11:24.904Z,11.34
2022-10-08T06:14:10.265Z,11.43
2022-10-08T06:16:44.574Z,11.52
2022-10-08T06:19:39.111Z,11.62
2022-10-08T06:22:22.552Z,11.71
2022-10-08T06:25:10.191Z,11.78
2022-10-08T06:30:53.455Z,11.93
2022-10-08T06:33:37.619Z,12.00
2022-10-08T06:36:14.744Z,12.07
2022-10-08T06:39:19.375Z,12.14
2022-10-08T06:42:01.629Z,12.23
2022-10-08T06:44:42.443Z,12.31
2022-10-08T06:47:15.259Z,12.39
2022-10-08T06:49:52.737Z,12.45
2022-10-08T06:52:20.144Z,12.53
2022-10-08T06:55:07.834Z,12.62
2022-10-08T06:57:37.803Z,12.75
2022-10-08T07:00:10.416Z,12.81
2022-10-08T07:02:52.839Z,12.88
2022-10-08T07:05:42.888Z,12.97
2022-10-08T07:08:40.704Z,13.09
2022-10-08T07:14:02.719Z,13.35
2022-10-08T07:16:50.594Z,13.45
2022-10-08T07:19:42.571Z,13.57
2022-10-08T07:22:18.120Z,13.69
2022-10-08T07:24:59.513Z,13.76
2022-10-08T07:27:59.790Z,13.80
2022-10-08T07:30:36.920Z,13.85
2022-10-08T07:33:19.086Z,13.93
2022-10-08T07:35:55.617Z,14.01
2022-10-08T07:38:25.427Z,14.09
2022-10-08T07:41:11.627Z,14.16
2022-10-08T07:43:58.083Z,14.21
2022-10-08T07:46:37.304Z,14.26
2022-10-08T07:49:20.370Z,14.34
2022-10-08T07:51:57.535Z,14.42
2022-10-08T07:54:27.462Z,14.50
2022-10-08T08:00:26.002Z,14.64
2022-10-08T08:03:05.330Z,14.72
2022-10-08T08:06:10.992Z,14.79
2022-10-08T08:08:47.967Z,14.84
2022-10-08T08:11:24.702Z,14.91
2022-10-08T08:14:03.231Z,14.98
2022-10-08T08:16:40.082Z,15.05
2022-10-08T08:19:31.090Z,15.10
2022-10-08T08:25:05.143Z,15.19
2022-10-08T08:28:01.195Z,15.26
2022-10-08T08:30:43.680Z,15.32
2022-10-08T08:33:32.426Z,15.40
2022-10-08T08:36:32.525Z,15.42
2022-10-08T08:39:26.020Z,15.46
2022-10-08T08:42:24.979Z,15.53
2022-10-08T08:45:01.544Z,15.57
2022-10-08T08:48:16.457Z,15.61
2022-10-08T08:50:50.740Z,15.70
2022-10-08T08:53:48.886Z,15.87
2022-10-08T08:56:32.430Z,16.04
2022-10-08T08:59:12.403Z,16.13
2022-10-08T09:02:02.736Z,16.11
2022-10-08T09:04:54.156Z,16.15
2022-10-08T09:07:49.155Z,16.27
2022-10-08T09:10:42.637Z,16.29
2022-10-08T09:13:31.919Z,16.41
2022-10-08T09:16:26.491Z,16.61
2022-10-08T09:19:12.570Z,16.68
2022-10-08T09:21:56.858Z,16.77
2022-10-08T09:25:58.648Z,16.83
2022-10-08T09:29:00.786Z,16.85
2022-10-08T09:31:31.001Z,16.95
2022-10-08T09:34:31.056Z,16.99
2022-10-08T09:37:26.635Z,16.97
2022-10-08T09:40:40.588Z,16.97
2022-10-08T09:43:29.359Z,17.13
2022-10-08T09:46:13.619Z,17.19
2022-10-08T09:48:48.633Z,17.24
2022-10-08T09:51:32.074Z,17.35
2022-10-08T09:54:31.413Z,17.51
2022-10-08T09:57:14.385Z,17.65
2022-10-08T10:00:35.857Z,17.86
2022-10-08T10:06:42.265Z,18.57
2022-10-08T10:09:40.862Z,18.57
2022-10-08T10:12:32.371Z,18.64
2022-10-08T10:15:24.038Z,18.98
2022-10-08T10:18:35.862Z,19.09
2022-10-08T10:21:27.280Z,19.24
2022-10-08T10:24:22.971Z,19.47
2022-10-08T10:27:23.948Z,19.31
2022-10-08T10:30:28.500Z,19.03
2022-10-08T10:33:18.938Z,18.94
2022-10-08T10:36:03.987Z,18.85
2022-10-08T10:38:43.214Z,18.85
2022-10-08T10:41:49.711Z,18.88
2022-10-08T10:44:34.711Z,18.89
2022-10-08T10:47:12.042Z,18.93
2022-10-08T10:49:51.305Z,18.88
2022-10-08T10:52:49.536Z,18.82
2022-10-08T10:55:50.239Z,18.79
2022-10-08T10:59:12.617Z,18.67
2022-10-08T11:02:03.342Z,18.52
2022-10-08T11:05:19.807Z,18.43
2022-10-08T11:08:16.676Z,18.37
2022-10-08T11:11:08.514Z,18.29
2022-10-08T11:14:03.660Z,18.25
2022-10-08T11:17:09.520Z,18.21
2022-10-08T11:19:46.052Z,18.12
2022-10-08T11:23:08.173Z,18.03
2022-10-08T11:26:20.880Z,17.95
2022-10-08T11:29:38.787Z,17.90
2022-10-08T11:32:22.668Z,17.84
2022-10-08T11:35:19.902Z,17.82
2022-10-08T11:38:40.411Z,17.79
2022-10-08T11:42:15.524Z,17.75
2022-10-08T11:45:14.832Z,17.72
2022-10-08T11:47:59.620Z,17.69
2022-10-08T11:51:24.903Z,17.72
2022-10-08T11:54:13.333Z,17.77
2022-10-08T11:57:13.172Z,17.83
2022-10-08T12:00:12.583Z,17.85
2022-10-08T12:02:55.235Z,17.88
2022-10-08T12:06:14.450Z,17.92
2022-10-08T12:09:54.265Z,17.95
2022-10-08T12:12:42.401Z,17.99
2022-10-08T12:15:46.794Z,18.01
2022-10-08T12:18:43.841Z,18.07
2022-10-08T12:21:36.361Z,18.11
2022-10-08T12:24:50.188Z,18.22
2022-10-08T12:27:46.852Z,18.29
2022-10-08T12:30:44.458Z,18.32
2022-10-08T12:33:28.271Z,18.33
2022-10-08T12:36:43.845Z,18.26
2022-10-08T12:39:46.952Z,18.29
2022-10-08T12:42:49.536Z,18.40
2022-10-08T12:46:05.193Z,18.53
2022-10-08T12:48:47.512Z,18.61
2022-10-08T12:51:43.735Z,18.89
2022-10-08T12:54:34.360Z,19.23
2022-10-08T12:57:27.598Z,19.30
2022-10-08T13:00:28.839Z,19.36
2022-10-08T13:03:17.252Z,19.50
2022-10-08T13:09:31.897Z,20.17
2022-10-08T13:16:10.510Z,20.35
2022-10-08T13:18:48.092Z,20.21
2022-10-08T13:22:20.017Z,19.94
2022-10-08T13:25:20.374Z,19.62
2022-10-08T13:28:10.756Z,19.33
2022-10-08T13:30:47.081Z,19.40
2022-10-08T13:33:38.597Z,19.62
2022-10-08T13:36:37.830Z,19.66
2022-10-08T13:39:16.857Z,19.65
2022-10-08T13:42:10.856Z,19.48
2022-10-08T13:44:45.800Z,19.26
2022-10-08T13:47:29.377Z,19.03
2022-10-08T13:50:22.967Z,18.86
2022-10-08T13:53:08.416Z,18.69
2022-10-08T13:56:01.608Z,18.57
2022-10-08T13:58:35.196Z,18.48
2022-10-08T14:04:32.665Z,18.34
2022-10-08T14:07:28.417Z,18.29
2022-10-08T14:10:13.358Z,18.28
2022-10-08T14:12:41.773Z,18.34
2022-10-08T14:15:41.271Z,18.40
2022-10-08T14:18:22.503Z,18.47
2022-10-08T14:20:52.131Z,18.50
2022-10-08T14:23:31.267Z,18.55
2022-10-08T14:26:15.687Z,18.61
2022-10-08T14:28:48.455Z,18.62
2022-10-08T14:31:21.202Z,18.63
2022-10-08T14:34:07.257Z,18.61
2022-10-08T14:36:44.132Z,18.53
2022-10-08T14:39:23.481Z,18.49
2022-10-08T14:41:58.427Z,18.44
2022-10-08T14:44:32.335Z,18.40
2022-10-08T14:47:06.943Z,18.38
2022-10-08T14:49:43.163Z,18.34
2022-10-08T14:52:44.691Z,18.30
2022-10-08T14:55:16.242Z,18.31
2022-10-08T14:57:46.578Z,18.29
2022-10-08T15:00:45.084Z,18.24
2022-10-08T15:03:21.281Z,18.19
2022-10-08T15:05:59.341Z,18.14
2022-10-08T15:08:44.392Z,18.08
2022-10-08T15:11:20.945Z,18.02
2022-10-08T15:14:07.262Z,17.97
2022-10-08T15:17:00.702Z,17.89
2022-10-08T15:19:44.931Z,17.81
2022-10-08T15:22:22.068Z,17.76
2022-10-08T15:25:04.353Z,17.69
2022-10-08T15:27:45.513Z,17.63
2022-10-08T15:30:23.548Z,17.56
2022-10-08T15:32:59.684Z,17.49
2022-10-08T15:35:44.044Z,17.43
2022-10-08T15:38:23.792Z,17.36
2022-10-08T15:41:08.272Z,17.30
2022-10-08T15:43:53.981Z,17.22
2022-10-08T15:46:36.042Z,17.14
2022-10-08T15:49:15.507Z,17.10
2022-10-08T15:51:45.298Z,17.05
2022-10-08T15:54:24.953Z,17.01
2022-10-08T15:56:54.495Z,16.98
2022-10-08T15:59:24.572Z,16.96
2022-10-08T16:02:02.369Z,16.93
2022-10-08T16:04:34.875Z,16.92
2022-10-08T16:07:20.401Z,16.90
2022-10-08T16:10:08.125Z,16.87
2022-10-08T16:12:49.182Z,16.84
2022-10-08T16:15:25.728Z,16.81
2022-10-08T16:18:08.347Z,16.79
2022-10-08T16:20:49.388Z,16.77
2022-10-08T16:23:46.337Z,16.75
2022-10-08T16:26:28.641Z,16.71
2022-10-08T16:29:08.109Z,16.67
2022-10-08T16:31:41.678Z,16.61
2022-10-08T16:34:30.662Z,16.58
2022-10-08T16:37:06.679Z,16.56
2022-10-08T16:39:51.729Z,16.54
2022-10-08T16:42:26.709Z,16.49
2022-10-08T16:45:18.204Z,16.38
2022-10-08T16:47:45.613Z,16.13
2022-10-08T16:50:25.706Z,15.80
2022-10-08T16:53:43.438Z,15.54
2022-10-08T16:56:25.608Z,15.37
2022-10-08T16:59:07.029Z,15.25
2022-10-08T17:01:46.261Z,15.08
2022-10-08T17:04:38.716Z,14.95
2022-10-08T17:07:15.411Z,14.83
2022-10-08T17:09:57.920Z,14.68
2022-10-08T17:13:01.274Z,14.57
2022-10-08T17:15:33.462Z,14.49
2022-10-08T17:18:07.682Z,14.42
2022-10-08T17:20:38.117Z,14.39
2022-10-08T17:23:25.680Z,14.36
2022-10-08T17:26:05.943Z,14.36
2022-10-08T17:28:49.070Z,14.36
2022-10-08T17:31:39.568Z,14.39
2022-10-08T17:34:14.541Z,14.40
2022-10-08T17:36:44.151Z,14.39
2022-10-08T17:39:29.365Z,14.40
2022-10-08T17:42:38.950Z,14.39
2022-10-08T17:45:11.325Z,14.41
2022-10-08T17:47:54.679Z,14.39
2022-10-08T17:53:20.923Z,14.35
2022-10-08T17:56:10.096Z,14.35
2022-10-08T17:58:51.387Z,14.33
2022-10-08T18:01:48.970Z,14.33
2022-10-08T18:04:38.545Z,14.30
2022-10-08T18:07:17.346Z,14.25
2022-10-08T18:10:06.846Z,14.24
2022-10-08T18:13:06.530Z,14.22
2022-10-08T18:15:47.903Z,14.18
2022-10-08T18:18:24.475Z,14.16
2022-10-08T18:21:10.326Z,14.14
2022-10-08T18:23:44.369Z,14.09
2022-10-08T18:26:36.611Z,14.07
2022-10-08T18:29:12.261Z,14.02
2022-10-08T18:31:54.194Z,13.98
2022-10-08T18:34:51.254Z,13.91
2022-10-08T18:37:32.310Z,13.83
2022-10-08T18:40:13.569Z,13.76
2022-10-08T18:42:55.956Z,13.71
2022-10-08T18:45:48.116Z,13.65
2022-10-08T18:48:15.895Z,13.60
2022-10-08T18:50:52.713Z,13.55
2022-10-08T18:53:40.627Z,13.51
2022-10-08T18:56:27.585Z,13.46
2022-10-08T18:59:20.290Z,13.39
2022-10-08T19:02:09.809Z,13.33
2022-10-08T19:05:27.613Z,13.28
2022-10-08T19:08:15.216Z,13.24
2022-10-08T19:11:00.267Z,13.21
2022-10-08T19:16:32.716Z,13.17
2022-10-08T19:19:19.478Z,13.14
2022-10-08T19:22:21.122Z,13.13
2022-10-08T19:25:14.442Z,13.11
2022-10-08T19:27:59.012Z,13.09
2022-10-08T19:30:34.714Z,13.10
2022-10-08T19:33:40.671Z,13.09
2022-10-08T19:36:28.314Z,13.07
2022-10-08T19:39:17.379Z,13.04
2022-10-08T19:41:54.425Z,13.02
2022-10-08T19:44:33.077Z,13.00
2022-10-08T19:47:10.287Z,12.99
2022-10-08T19:49:59.059Z,12.97
2022-10-08T19:52:39.293Z,12.96
2022-10-08T19:55:32.162Z,12.94
2022-10-08T19:58:11.539Z,12.93
2022-10-08T20:00:59.913Z,12.92
2022-10-08T20:04:04.026Z,12.93
2022-10-08T20:06:34.276Z,12.91
2022-10-08T20:09:03.443Z,12.88
2022-10-08T20:11:44.242Z,12.87
2022-10-08T20:14:18.754Z,12.85
2022-10-08T20:16:57.651Z,12.84
2022-10-08T20:20:15.262Z,12.82
2022-10-08T20:23:09.393Z,12.84
2022-10-08T20:26:11.460Z,12.85
2022-10-08T20:29:00.735Z,12.84
2022-10-08T20:31:41.188Z,12.81
2022-10-08T20:34:24.619Z,12.78
2022-10-08T20:37:10.499Z,12.77
2022-10-08T20:40:03.757Z,12.74
2022-10-08T20:42:52.137Z,12.69
2022-10-08T20:45:35.842Z,12.68
2022-10-08T20:48:35.334Z,12.67
2022-10-08T20:51:25.817Z,12.65
2022-10-08T20:54:16.601Z,12.62
2022-10-08T20:56:53.370Z,12.60
2022-10-08T20:59:35.907Z,12.58
2022-10-08T21:02:11.013Z,12.56
2022-10-08T21:05:07.122Z,12.55
2022-10-08T21:11:13.230Z,12.53
2022-10-08T21:14:06.640Z,12.49
2022-10-08T21:17:08.705Z,12.49
2022-10-08T21:19:53.842Z,12.48
2022-10-08T21:22:42.762Z,12.45
2022-10-08T21:25:47.165Z,12.40
2022-10-08T21:28:46.844Z,12.35
2022-10-08T21:31:45.590Z,12.30
2022-10-08T21:34:23.468Z,12.26
2022-10-08T21:37:13.814Z,12.24
2022-10-08T21:40:00.672Z,12.21
2022-10-08T21:42:37.554Z,12.17
2022-10-08T21:45:17.461Z,12.13
2022-10-08T21:47:50.833Z,12.11
2022-10-08T21:50:49.232Z,12.09
2022-10-08T21:53:46.105Z,12.09
2022-10-08T21:56:32.113Z,12.07
2022-10-08T21:59:28.744Z,12.02
2022-10-08T22:01:57.593Z,11.99
2022-10-08T22:04:37.200Z,11.98
2022-10-08T22:07:52.570Z,11.97
2022-10-08T22:10:34.969Z,11.93
2022-10-08T22:13:08.640Z,11.89
2022-10-08T22:16:08.500Z,11.86
2022-10-08T22:19:06.784Z,11.85
2022-10-08T22:21:48.910Z,11.84
2022-10-08T22:24:31.309Z,11.80
2022-10-08T22:30:14.200Z,11.69
2022-10-08T22:32:48.736Z,11.63
2022-10-08T22:35:45.944Z,11.57
2022-10-08T22:38:13.738Z,11.51
2022-10-08T22:41:08.647Z,11.44
2022-10-08T22:43:50.660Z,11.39
2022-10-08T22:46:22.872Z,11.33
2022-10-08T22:49:07.112Z,11.28
2022-10-08T22:51:56.170Z,11.23
2022-10-08T22:54:39.090Z,11.16
2022-10-08T22:57:39.887Z,11.10
2022-10-08T23:00:17.193Z,11.02
2022-10-08T23:03:11.332Z,10.98
2022-10-08T23:05:46.445Z,10.94
2022-10-08T23:08:16.955Z,10.89
2022-10-08T23:11:26.654Z,10.82
2022-10-08T23:14:04.603Z,10.77
2022-10-08T23:17:05.062Z,10.73
2022-10-08T23:19:40.734Z,10.70
2022-10-08T23:22:22.765Z,10.66
2022-10-08T23:25:35.906Z,10.62
2022-10-08T23:28:09.987Z,10.57
2022-10-08T23:31:21.984Z,10.55
2022-10-08T23:34:03.051Z,10.56
2022-10-08T23:36:51.161Z,10.58
2022-10-08T23:39:21.529Z,10.61
2022-10-08T23:42:12.832Z,10.63
2022-10-08T23:44:54.429Z,10.64
2022-10-08T23:47:44.052Z,10.66
2022-10-08T23:50:43.296Z,10.67
2022-10-08T23:53:19.222Z,10.66
2022-10-08T23:56:20.950Z,10.69
2022-10-08T23:58:56.385Z,10.70
